Time;durP1;ratioP1;P1;durP2;ratioP2;P2;SDS_P1;SDS_P2;PMS_P1;PMS_P2;Temp;Humidity;BMP_temperature;BMP_pressure;BME280_temperature;BME280_humidity;BME280_pressure;Samples;Min_cycle;Max_cycle;Signal;HPM_P1;HPM_P2
2023/01/07 11:46:13;;;;;;;0.50;0.50;;;10.80;33.10;;;;;;5093688;27;20893;-82
2023/01/07 11:48:48;;;;;;;1.00;0.90;;;10.80;49.10;;;;;;5088676;28;20208;-83
2023/01/07 11:51:15;;;;;;;0.57;0.50;;;10.90;46.90;;;;;;5084420;28;20258;-82
2023/01/07 11:53:45;;;;;;;0.50;0.50;;;10.90;29.20;;;;;;5083517;28;20215;-82
2023/01/07 11:56:20;;;;;;;2.28;0.57;;;10.90;29.60;;;;;;5080276;28;20181;-82
2023/01/07 11:59:10;;;;;;;0.40;0.40;;;10.90;22.90;;;;;;5082076;28;20180;-82
2023/01/07 12:01:50;;;;;;;0.40;0.40;;;10.90;30.00;;;;;;5083427;28;20192;-82
2023/01/07 12:04:28;;;;;;;0.63;0.60;;;10.90;17.70;;;;;;5082645;28;20246;-82
2023/01/07 12:07:04;;;;;;;58.70;8.73;;;10.80;21.50;;;;;;5085026;28;20197;-82
2023/01/07 12:09:49;;;;;;;25.83;4.28;;;10.80;28.60;;;;;;5087251;28;20181;-83
2023/01/07 12:12:35;;;;;;;132.40;15.70;;;10.90;34.50;;;;;;5109525;27;20220;-82
2023/01/07 12:15:15;;;;;;;9.60;2.20;;;10.70;16.10;;;;;;5084206;28;20173;-82
2023/01/07 12:17:44;;;;;;;34.10;5.30;;;10.70;5.20;;;;;;5082648;28;20700;-81
2023/01/07 12:20:47;;;;;;;8.00;1.93;;;10.60;8.90;;;;;;5080879;28;20652;-82
2023/01/07 12:23:34;;;;;;;2.77;0.97;;;10.60;9.60;;;;;;5079609;28;20193;-82
2023/01/07 12:26:28;;;;;;;20.93;4.60;;;10.40;5.60;;;;;;5076346;28;20211;-83
2023/01/07 12:29:48;;;;;;;7.87;1.50;;;10.60;1.00;;;;;;5076569;28;20181;-82
2023/01/07 12:32:34;;;;;;;10.47;2.40;;;10.60;1.00;;;;;;5035979;28;20197;-81
2023/01/07 12:35:14;;;;;;;4.20;1.03;;;10.60;1.00;;;;;;5075052;28;20204;-84
2023/01/07 12:37:52;;;;;;;2.20;1.30;;;10.60;1.00;;;;;;5075973;28;20215;-81
2023/01/07 12:40:31;;;;;;;1.03;0.73;;;10.70;1.00;;;;;;5077978;28;20193;-81
2023/01/07 12:43:12;;;;;;;1.93;0.83;;;10.70;1.00;;;;;;5079164;28;20181;-81
2023/01/07 12:46:07;;;;;;;1.50;1.40;;;10.70;1.00;;;;;;5075882;28;20217;-81
2023/01/07 12:48:43;;;;;;;0.97;0.87;;;10.70;1.00;;;;;;5071901;28;20537;-81
2023/01/07 12:51:30;;;;;;;1.17;0.80;;;10.70;1.00;;;;;;5076312;28;20207;-81
2023/01/07 12:54:25;;;;;;;2.53;1.30;;;10.70;1.00;;;;;;5076671;28;20173;-81
2023/01/07 12:56:53;;;;;;;2.10;1.30;;;10.70;1.00;;;;;;5049074;28;20410;-81
2023/01/07 12:59:30;;;;;;;2.37;1.47;;;10.70;1.00;;;;;;5060577;28;20193;-82
2023/01/07 13:02:25;;;;;;;1.80;1.03;;;10.60;1.00;;;;;;5059181;28;20290;-81
2023/01/07 13:05:02;;;;;;;0.90;0.90;;;10.60;1.00;;;;;;5061183;28;20473;-81
2023/01/07 13:07:41;;;;;;;1.87;0.70;;;10.50;1.00;;;;;;5063049;28;20671;-80
2023/01/07 13:10:35;;;;;;;0.90;0.90;;;10.50;1.00;;;;;;5058592;28;20182;-80
2023/01/07 13:13:08;;;;;;;1.20;1.10;;;10.50;1.00;;;;;;5061179;28;20335;-80
2023/01/07 13:15:37;;;;;;;0.80;0.73;;;10.50;1.00;;;;;;5061359;28;20271;-81
2023/01/07 13:18:09;;;;;;;1.40;0.93;;;10.40;1.00;;;;;;5062869;28;20342;-82
2023/01/07 13:21:01;;;;;;;3.30;1.80;;;10.50;1.00;;;;;;5063346;28;20181;-81
2023/01/07 13:23:58;;;;;;;1.50;1.37;;;10.40;1.00;;;;;;5058335;28;20196;-80
2023/01/07 13:26:27;;;;;;;3.83;1.73;;;10.40;1.00;;;;;;5056924;28;20194;-81
2023/01/07 13:29:24;;;;;;;2.10;1.57;;;10.20;1.00;;;;;;5060012;28;20192;-81
2023/01/07 13:31:55;;;;;;;1.67;0.90;;;10.20;1.00;;;;;;5063100;28;20182;-80
2023/01/07 13:34:24;;;;;;;1.13;1.03;;;10.10;1.00;;;;;;5063849;28;20212;-81
2023/01/07 13:37:08;;;;;;;1.53;1.10;;;10.10;1.00;;;;;;5060644;28;20204;-81
2023/01/07 13:40:11;;;;;;;2.63;2.23;;;10.00;1.00;;;;;;5061372;28;20174;-80
2023/01/07 13:42:51;;;;;;;1.60;1.30;;;10.00;1.00;;;;;;5060827;28;20723;-80
2023/01/07 13:45:22;;;;;;;1.33;1.00;;;10.00;1.00;;;;;;5062645;28;20240;-83
2023/01/07 13:47:51;;;;;;;2.03;1.23;;;9.90;1.00;;;;;;5058392;28;20572;-80
2023/01/07 13:50:52;;;;;;;1.20;0.87;;;9.90;1.00;;;;;;5065232;28;20264;-80
2023/01/07 13:53:18;;;;;;;1.33;1.20;;;9.80;1.00;;;;;;5066982;28;20214;-81
2023/01/07 13:55:45;;;;;;;1.20;1.10;;;9.80;1.00;;;;;;5066482;28;20697;-81
2023/01/07 13:58:29;;;;;;;1.13;1.03;;;9.80;1.00;;;;;;5063472;28;20296;-81
2023/01/07 14:01:08;;;;;;;0.80;0.70;;;9.80;1.00;;;;;;5061613;28;20181;-80
2023/01/07 14:03:40;;;;;;;1.07;0.70;;;9.80;1.00;;;;;;5060794;28;20188;-80
2023/01/07 14:06:41;;;;;;;2.83;0.70;;;9.70;1.40;;;;;;5060911;28;20292;-80
2023/01/07 14:09:06;;;;;;;0.80;0.60;;;9.70;1.00;;;;;;5061396;28;20665;-81
2023/01/07 14:11:32;;;;;;;2.30;0.50;;;9.80;1.00;;;;;;5060246;28;20812;-80
2023/01/07 14:14:13;;;;;;;0.50;0.50;;;9.80;1.00;;;;;;5060836;28;20178;-81
2023/01/07 14:16:41;;;;;;;0.60;0.60;;;9.80;1.00;;;;;;5059719;28;20274;-81
2023/01/07 14:19:21;;;;;;;1.70;0.60;;;9.80;1.00;;;;;;5061186;28;20188;-80
2023/01/07 14:22:05;;;;;;;0.90;0.70;;;9.80;1.00;;;;;;5062771;28;20177;-80
2023/01/07 14:24:54;;;;;;;0.70;0.50;;;9.70;1.00;;;;;;5062877;28;20244;-81
2023/01/07 14:27:42;;;;;;;0.57;0.50;;;9.80;1.00;;;;;;5062174;28;20198;-80
2023/01/07 14:30:22;;;;;;;0.60;0.50;;;9.80;1.00;;;;;;5063916;28;20219;-80
2023/01/07 14:33:04;;;;;;;0.50;0.50;;;9.80;1.00;;;;;;5063477;28;20181;-80
2023/01/07 14:35:39;;;;;;;1.07;0.97;;;9.80;1.00;;;;;;5063753;28;20205;-80
2023/01/07 14:38:32;;;;;;;0.50;0.50;;;9.70;1.00;;;;;;5065580;28;20197;-80
2023/01/07 14:41:09;;;;;;;0.57;0.40;;;9.60;1.00;;;;;;5062347;28;20198;-79
2023/01/07 14:43:47;;;;;;;0.90;0.90;;;9.60;1.00;;;;;;5061539;28;20188;-80
2023/01/07 14:46:21;;;;;;;0.50;0.50;;;9.60;1.00;;;;;;5062945;28;20784;-79
2023/01/07 14:49:02;;;;;;;0.60;0.60;;;9.60;1.00;;;;;;5061198;28;20746;-80
2023/01/07 14:51:43;;;;;;;0.50;0.50;;;9.60;1.00;;;;;;5062598;28;20173;-79
2023/01/07 14:54:48;;;;;;;0.77;0.60;;;9.60;1.00;;;;;;5065138;28;20681;-80
2023/01/07 14:57:26;;;;;;;2.13;0.63;;;9.70;1.00;;;;;;5031420;28;20297;-80
2023/01/07 15:00:22;;;;;;;0.50;0.50;;;9.60;1.00;;;;;;5066456;28;20269;-82
2023/01/07 15:03:12;;;;;;;0.70;0.60;;;9.60;1.00;;;;;;5066191;28;20201;-80
2023/01/07 15:05:50;;;;;;;1.73;1.00;;;9.50;1.00;;;;;;5064981;28;21000;-80
2023/01/07 15:16:50;;;;;;;1.50;1.40;;;9.40;1.00;;;;;;5065106;28;20286;-79
2023/01/07 15:19:16;;;;;;;0.90;0.90;;;9.40;1.00;;;;;;5062084;28;20730;-80
2023/01/07 15:22:11;;;;;;;1.10;1.00;;;9.40;1.00;;;;;;5064519;28;20261;-81
2023/01/07 15:24:51;;;;;;;0.70;0.70;;;9.30;1.00;;;;;;5063705;28;20220;-79
2023/01/07 15:27:43;;;;;;;1.90;1.80;;;9.30;16.80;;;;;;5063739;28;20576;-80
2023/01/07 15:30:48;;;;;;;1.83;1.73;;;9.30;4.20;;;;;;5062849;28;20186;-80
2023/01/07 15:33:24;;;;;;;2.40;0.90;;;9.20;14.80;;;;;;5059145;28;20658;-79
2023/01/07 15:35:50;;;;;;;1.58;1.48;;;9.10;42.20;;;;;;5061104;28;20410;-79
2023/01/07 15:38:21;;;;;;;1.93;1.83;;;8.90;78.40;;;;;;5062790;28;20216;-79
2023/01/07 15:40:47;;;;;;;2.27;1.90;;;8.90;99.70;;;;;;5066612;28;21040;-79
2023/01/07 15:43:22;;;;;;;4.07;3.77;;;9.00;97.70;;;;;;5063510;28;20225;-80
2023/01/07 15:45:55;;;;;;;1.40;1.30;;;9.00;98.00;;;;;;5062850;28;20215;-79
2023/01/07 15:48:21;;;;;;;1.30;1.20;;;9.00;99.90;;;;;;5063154;28;20209;-79
2023/01/07 15:50:47;;;;;;;1.73;1.20;;;8.90;99.90;;;;;;5064039;28;20190;-79
2023/01/07 15:53:12;;;;;;;1.63;1.10;;;8.80;99.90;;;;;;5060492;28;20284;-79
2023/01/07 15:55:42;;;;;;;1.30;1.20;;;8.80;99.90;;;;;;5060166;28;20418;-79
2023/01/07 15:58:17;;;;;;;1.70;1.20;;;8.80;99.90;;;;;;5063822;28;20216;-79
2023/01/07 16:00:43;;;;;;;1.10;1.00;;;8.80;99.90;;;;;;5063985;28;20196;-78
2023/01/07 16:03:16;;;;;;;1.17;1.07;;;8.80;99.90;;;;;;5065346;28;20189;-78
2023/01/07 16:05:42;;;;;;;1.10;1.10;;;8.80;99.90;;;;;;5060974;28;20202;-78
2023/01/07 16:08:16;;;;;;;0.90;0.90;;;8.70;93.90;;;;;;5058714;28;20205;-79
2023/01/07 16:10:55;;;;;;;2.83;0.90;;;8.70;99.90;;;;;;5062551;28;20722;-78
2023/01/07 16:13:21;;;;;;;1.37;0.97;;;8.70;99.90;;;;;;5062061;28;20204;-78
2023/01/07 16:15:54;;;;;;;1.00;1.00;;;8.60;99.90;;;;;;5062910;28;20221;-79
2023/01/07 16:18:20;;;;;;;1.70;1.60;;;8.60;99.90;;;;;;5063121;28;20213;-81
2023/01/07 16:20:54;;;;;;;1.57;1.27;;;8.50;99.90;;;;;;5063699;28;20185;-78
2023/01/07 16:23:26;;;;;;;1.43;1.20;;;8.50;99.90;;;;;;5063837;28;20192;-79
2023/01/07 16:26:02;;;;;;;0.87;0.87;;;8.50;99.90;;;;;;5061785;28;20220;-80
2023/01/07 16:28:44;;;;;;;0.90;0.90;;;8.50;99.90;;;;;;5064579;28;20703;-79
2023/01/07 16:31:13;;;;;;;1.43;0.80;;;8.50;99.90;;;;;;5062501;28;20185;-79
2023/01/07 16:33:41;;;;;;;1.57;0.90;;;8.40;99.90;;;;;;5066170;28;20186;-80
2023/01/07 16:36:22;;;;;;;0.90;0.90;;;8.30;99.90;;;;;;5064925;28;20229;-79
2023/01/07 16:38:53;;;;;;;1.13;1.03;;;8.20;99.90;;;;;;5066266;28;20194;-80
2023/01/07 16:41:25;;;;;;;1.10;1.00;;;8.30;99.90;;;;;;5066661;28;20193;-80
2023/01/07 16:43:55;;;;;;;1.00;0.90;;;8.30;99.90;;;;;;5065344;28;20207;-79
2023/01/07 16:46:29;;;;;;;2.67;1.03;;;8.30;99.90;;;;;;5066217;28;20254;-79
2023/01/07 16:49:10;;;;;;;1.00;1.00;;;8.20;99.90;;;;;;5064699;28;20181;-79
2023/01/07 16:51:43;;;;;;;2.50;1.30;;;8.20;99.90;;;;;;5068039;28;20646;-79
2023/01/07 16:54:24;;;;;;;1.47;1.37;;;8.10;99.90;;;;;;5070257;28;20192;-83
2023/01/07 16:56:56;;;;;;;2.60;1.40;;;7.90;99.90;;;;;;5072184;28;20878;-83
2023/01/07 16:59:26;;;;;;;1.70;1.60;;;7.80;99.90;;;;;;5067893;28;20254;-79
2023/01/07 17:01:52;;;;;;;2.40;1.90;;;7.70;99.90;;;;;;5067586;28;20636;-79
2023/01/07 17:04:26;;;;;;;2.20;1.73;;;7.60;99.90;;;;;;5065675;28;20205;-79
2023/01/07 17:06:52;;;;;;;42.43;24.03;;;7.50;99.90;;;;;;5065298;28;20638;-79
2023/01/07 17:09:26;;;;;;;62.77;36.00;;;7.50;99.90;;;;;;5068183;28;20237;-78
2023/01/07 17:11:52;;;;;;;106.93;57.60;;;7.40;99.90;;;;;;5064280;28;20194;-80
2023/01/07 17:14:33;;;;;;;52.33;30.77;;;7.40;99.90;;;;;;5067436;28;20182;-79
2023/01/07 17:17:03;;;;;;;5.90;3.13;;;7.30;99.90;;;;;;5065630;28;20202;-80
2023/01/07 17:19:39;;;;;;;11.80;6.60;;;7.20;99.90;;;;;;5063877;28;20183;-80
2023/01/07 17:22:34;;;;;;;9.67;5.63;;;7.10;99.90;;;;;;5059697;28;20212;-79
2023/01/07 17:25:08;;;;;;;5.10;3.50;;;7.30;99.90;;;;;;5062896;28;20220;-79
2023/01/07 17:27:37;;;;;;;11.23;7.77;;;6.90;1.00;;;;;;5068242;28;20258;-78
2023/01/07 17:30:04;;;;;;;11.97;7.43;;;6.70;99.90;;;;;;5069662;28;20185;-78
2023/01/07 17:32:30;;;;;;;5.70;4.70;;;;;;;;;;5071194;28;20260;-79
2023/01/07 17:35:01;;;;;;;31.07;18.47;;;6.80;1.00;;;;;;5069295;28;20189;-78
2023/01/07 17:37:26;;;;;;;67.63;37.23;;;6.80;1.00;;;;;;5064848;28;20555;-78
2023/01/07 17:39:52;;;;;;;53.43;29.90;;;6.80;1.00;;;;;;5068987;28;20182;-79
2023/01/07 17:45:14;;;;;;;19.10;15.13;;;6.70;1.00;;;;;;5067848;28;20302;-77
2023/01/07 17:47:40;;;;;;;16.87;11.83;;;6.60;1.00;;;;;;5067729;28;20752;-78
2023/01/07 17:50:06;;;;;;;11.63;9.10;;;6.60;1.00;;;;;;5069032;28;20260;-79
2023/01/07 17:52:31;;;;;;;10.30;7.93;;;6.60;1.00;;;;;;5070034;28;20272;-77
2023/01/07 17:54:57;;;;;;;7.77;5.53;;;6.40;1.00;;;;;;5069215;28;20186;-79
2023/01/07 17:57:22;;;;;;;4.70;4.20;;;6.50;1.00;;;;;;5069185;28;20206;-77
2023/01/07 17:59:48;;;;;;;5.40;4.50;;;6.40;1.00;;;;;;5071294;28;20182;-78
2023/01/07 18:02:22;;;;;;;11.23;9.93;;;6.30;1.00;;;;;;5066606;28;20185;-79
2023/01/07 18:04:47;;;;;;;4.67;4.27;;;6.20;1.00;;;;;;5066049;28;20203;-78
2023/01/07 18:07:14;;;;;;;3.50;3.20;;;6.10;1.00;;;;;;5065707;28;20269;-79
2023/01/07 18:09:40;;;;;;;3.20;2.90;;;6.00;1.00;;;;;;5063868;28;20178;-79
2023/01/07 18:12:29;;;;;;;3.33;3.03;;;6.20;99.90;;;;;;5066700;28;20184;-79
2023/01/07 18:14:56;;;;;;;4.23;3.60;;;6.10;98.40;;;;;;5067468;28;20185;-78
2023/01/07 18:17:21;;;;;;;4.00;3.70;;;7.20;99.90;;;;;;5066812;28;20274;-78
2023/01/07 18:19:49;;;;;;;5.23;4.73;;;6.10;99.90;;;;;;5071890;28;20718;-78
2023/01/07 18:22:14;;;;;;;4.30;3.90;;;6.30;99.90;;;;;;5067809;28;20181;-78
2023/01/07 18:24:40;;;;;;;3.80;3.50;;;9.30;99.90;;;;;;5068537;28;20284;-77
2023/01/07 18:27:05;;;;;;;3.53;3.23;;;6.40;1.00;;;;;;5068570;28;20213;-78
2023/01/07 18:29:31;;;;;;;3.30;3.00;;;6.40;1.00;;;;;;5068506;28;20189;-77
2023/01/07 18:31:56;;;;;;;3.53;3.23;;;6.50;1.00;;;;;;5066342;28;20184;-78
2023/01/07 18:34:22;;;;;;;3.03;2.83;;;6.60;1.00;;;;;;5063639;28;20193;-79
2023/01/07 18:36:48;;;;;;;3.00;2.70;;;6.50;1.00;;;;;;5063346;28;20205;-78
2023/01/07 18:39:15;;;;;;;3.13;2.90;;;6.50;31.70;;;;;;5064866;28;20281;-79
2023/01/07 18:41:41;;;;;;;3.37;3.10;;;6.60;6.20;;;;;;5065316;28;20282;-79
2023/01/07 18:44:07;;;;;;;3.63;3.33;;;6.70;1.00;;;;;;5063347;28;20796;-78
2023/01/07 18:46:33;;;;;;;23.93;21.97;;;6.80;99.90;;;;;;5063321;28;20243;-79
2023/01/07 18:48:59;;;;;;;8.23;7.53;;;6.80;1.00;;;;;;5064203;28;20193;-79
2023/01/07 18:51:24;;;;;;;15.60;14.10;;;6.80;1.00;;;;;;5064167;28;20366;-79
2023/01/07 18:53:50;;;;;;;15.60;14.10;;;6.80;1.00;;;;;;5063808;28;20721;-78
2023/01/07 18:56:16;;;;;;;9.50;8.60;;;6.90;1.00;;;;;;5061833;28;21145;-79
2023/01/07 18:58:42;;;;;;;3.83;3.50;;;6.70;1.00;;;;;;5063518;28;20211;-79
2023/01/07 19:01:08;;;;;;;4.10;3.77;;;6.70;1.00;;;;;;5063309;28;20577;-79
2023/01/07 19:03:34;;;;;;;4.13;3.27;;;6.80;1.00;;;;;;5063607;28;20207;-79
2023/01/07 19:06:04;;;;;;;2.80;2.60;;;7.00;99.90;;;;;;5064067;28;20220;-79
2023/01/07 19:08:31;;;;;;;3.60;3.23;;;6.80;1.00;;;;;;5060567;28;20739;-79
2023/01/07 19:10:56;;;;;;;2.73;2.53;;;7.10;99.90;;;;;;5057189;28;20570;-79
2023/01/07 19:13:22;;;;;;;2.60;2.40;;;7.10;1.00;;;;;;5060764;28;20351;-79
2023/01/07 19:15:47;;;;;;;3.40;2.77;;;7.10;99.90;;;;;;5065261;28;20185;-79
2023/01/07 19:18:13;;;;;;;2.83;2.53;;;7.00;99.90;;;;;;5063982;28;20217;-79
2023/01/07 19:20:38;;;;;;;5.70;5.20;;;8.20;99.90;;;;;;5068402;28;20200;-79
2023/01/07 19:23:04;;;;;;;9.10;8.30;;;7.10;1.00;;;;;;5070189;28;20196;-79
2023/01/07 19:25:30;;;;;;;14.03;12.70;;;7.10;99.90;;;;;;5073098;28;20209;-78
2023/01/07 19:27:56;;;;;;;7.77;7.07;;;7.20;1.00;;;;;;5070040;28;20228;-79
2023/01/07 19:30:22;;;;;;;4.83;4.33;;;7.00;99.90;;;;;;5063493;28;20227;-79
2023/01/07 19:32:48;;;;;;;5.13;4.33;;;7.10;1.00;;;;;;5064938;28;20674;-78
2023/01/07 19:35:13;;;;;;;5.90;4.93;;;7.10;99.90;;;;;;5065656;28;20204;-79
2023/01/07 19:37:39;;;;;;;6.03;5.33;;;7.10;99.90;;;;;;5071088;28;20216;-80
2023/01/07 19:40:05;;;;;;;23.27;18.67;;;7.10;99.90;;;;;;5069786;28;20204;-79
2023/01/07 19:42:32;;;;;;;14.17;10.67;;;7.00;99.90;;;;;;5069298;28;20182;-79
2023/01/07 19:44:57;;;;;;;9.40;8.37;;;6.90;99.90;;;;;;5068599;28;20298;-79
2023/01/07 19:47:23;;;;;;;5.33;4.87;;;6.80;99.90;;;;;;5069820;28;20201;-78
2023/01/07 19:49:48;;;;;;;3.73;3.13;;;6.70;99.90;;;;;;5071933;28;20200;-78
2023/01/07 19:52:14;;;;;;;4.27;3.97;;;6.70;99.90;;;;;;5071190;28;20212;-79
2023/01/07 19:54:40;;;;;;;3.60;3.30;;;6.50;99.90;;;;;;5070774;28;20292;-79
2023/01/07 19:57:06;;;;;;;3.20;2.90;;;6.50;99.90;;;;;;5070339;28;20205;-78
2023/01/07 19:59:33;;;;;;;3.10;2.80;;;6.40;99.90;;;;;;5071649;28;20193;-78
2023/01/07 20:02:00;;;;;;;3.67;3.37;;;6.40;99.90;;;;;;5069744;28;20214;-78
2023/01/07 20:04:26;;;;;;;6.40;5.90;;;6.30;99.90;;;;;;5069713;28;20211;-79
2023/01/07 20:06:51;;;;;;;3.50;3.20;;;6.20;99.90;;;;;;5072928;28;20201;-78
2023/01/07 20:09:17;;;;;;;6.10;5.60;;;6.30;99.90;;;;;;5077228;28;20185;-78
2023/01/07 20:11:44;;;;;;;4.30;3.90;;;6.20;99.90;;;;;;5076630;28;20196;-77
2023/01/07 20:14:11;;;;;;;4.50;4.10;;;6.10;99.90;;;;;;5076861;28;20185;-77
2023/01/07 20:16:38;;;;;;;4.33;3.97;;;6.20;51.10;;;;;;5078750;28;20243;-80
2023/01/07 20:19:04;;;;;;;3.67;3.37;;;6.10;99.90;;;;;;5077211;28;20186;-79
2023/01/07 20:21:31;;;;;;;4.20;3.80;;;6.30;99.90;;;;;;5075414;28;20182;-79
2023/01/07 20:23:57;;;;;;;6.93;6.33;;;6.60;99.90;;;;;;5074739;28;20243;-78
2023/01/07 20:26:26;;;;;;;3.67;3.07;;;6.10;99.90;;;;;;5070933;28;20205;-79
2023/01/07 20:28:51;;;;;;;5.03;4.40;;;6.10;99.90;;;;;;5072499;28;20181;-79
2023/01/07 20:31:20;;;;;;;3.47;3.17;;;6.10;99.90;;;;;;5073206;28;20219;-79
2023/01/07 20:33:46;;;;;;;3.80;3.47;;;6.10;99.90;;;;;;5073012;28;20185;-79
2023/01/07 20:36:23;;;;;;;3.40;3.10;;;6.10;99.90;;;;;;5073914;28;20200;-78
2023/01/07 20:38:50;;;;;;;3.23;2.73;;;5.90;99.90;;;;;;5071404;28;20246;-79
2023/01/07 20:41:18;;;;;;;2.63;2.43;;;6.00;99.90;;;;;;5073127;28;20189;-79
2023/01/07 20:43:55;;;;;;;3.47;2.60;;;6.00;99.90;;;;;;5073377;28;20829;-79
2023/01/07 20:46:22;;;;;;;2.67;2.47;;;6.10;99.90;;;;;;5073159;28;20687;-78
2023/01/07 20:48:48;;;;;;;2.73;2.47;;;6.00;99.90;;;;;;5073333;28;20180;-79
2023/01/07 20:51:14;;;;;;;2.80;2.60;;;5.90;99.90;;;;;;5073324;28;20201;-79
2023/01/07 20:53:40;;;;;;;2.87;2.00;;;6.10;99.90;;;;;;5072006;28;20182;-78
2023/01/07 20:56:07;;;;;;;2.70;2.50;;;6.20;99.90;;;;;;5073470;28;20201;-79
2023/01/07 20:58:34;;;;;;;3.10;2.40;;;6.20;99.90;;;;;;5074888;28;20201;-79
2023/01/07 21:01:06;;;;;;;3.23;2.40;;;6.00;99.90;;;;;;5068154;28;20190;-79
2023/01/07 21:03:33;;;;;;;2.60;2.40;;;6.20;99.90;;;;;;5067601;28;20272;-78
2023/01/07 21:05:58;;;;;;;3.17;2.87;;;6.20;99.90;;;;;;5068917;28;20200;-78
2023/01/07 21:08:24;;;;;;;3.40;3.10;;;6.20;99.90;;;;;;5066630;28;20255;-78
2023/01/07 21:10:50;;;;;;;2.87;2.67;;;6.20;99.90;;;;;;5065666;28;20196;-79
2023/01/07 21:13:16;;;;;;;3.57;2.73;;;6.30;99.90;;;;;;5065835;28;20189;-78
2023/01/07 21:15:42;;;;;;;3.03;2.73;;;6.30;99.90;;;;;;5067240;28;20208;-78
2023/01/07 21:18:07;;;;;;;2.93;2.73;;;6.30;99.90;;;;;;5063738;28;20252;-78
2023/01/07 21:20:33;;;;;;;3.30;3.00;;;6.30;1.00;;;;;;5067350;28;20712;-78
2023/01/07 21:22:58;;;;;;;3.10;2.67;;;6.30;1.00;;;;;;5067638;28;20178;-78
2023/01/07 21:25:24;;;;;;;5.40;5.00;;;6.40;1.00;;;;;;5067010;28;20218;-78
2023/01/07 21:27:50;;;;;;;4.00;3.33;;;7.80;1.00;;;;;;5066489;28;20208;-78
2023/01/07 21:30:16;;;;;;;3.50;3.20;;;6.20;1.00;;;;;;5066535;28;20190;-78
2023/01/07 21:32:42;;;;;;;3.40;3.10;;;6.30;1.00;;;;;;5066747;28;20188;-79
2023/01/07 21:35:10;;;;;;;3.67;3.37;;;6.40;1.00;;;;;;5067862;28;20193;-78
2023/01/07 21:37:35;;;;;;;2.97;2.70;;;6.30;99.90;;;;;;5065894;28;20325;-77
2023/01/07 21:40:01;;;;;;;3.23;2.93;;;6.20;99.90;;;;;;5070759;28;20221;-77
2023/01/07 21:42:27;;;;;;;3.40;2.90;;;6.40;99.90;;;;;;5066814;28;20732;-78
2023/01/07 21:44:52;;;;;;;3.20;2.90;;;6.30;99.90;;;;;;5068321;28;20205;-78
2023/01/07 21:47:18;;;;;;;4.30;3.80;;;6.30;99.90;;;;;;5066267;28;20197;-79
2023/01/07 21:49:43;;;;;;;5.90;2.77;;;6.40;99.90;;;;;;5068880;28;20178;-79
2023/01/07 21:52:09;;;;;;;3.23;2.70;;;6.30;99.90;;;;;;5068961;28;20239;-78
2023/01/07 21:54:35;;;;;;;10.47;8.77;;;6.30;99.90;;;;;;5069481;28;20197;-78
2023/01/07 21:57:01;;;;;;;4.33;3.93;;;6.50;99.90;;;;;;5070661;28;20209;-78
2023/01/07 21:59:26;;;;;;;4.43;3.60;;;6.60;99.90;;;;;;5071863;28;21190;-79
2023/01/07 22:01:52;;;;;;;4.90;4.40;;;6.60;99.90;;;;;;5073302;28;20208;-79
2023/01/07 22:04:18;;;;;;;4.10;3.03;;;6.70;99.90;;;;;;5068174;28;20185;-79
2023/01/07 22:06:43;;;;;;;3.93;3.63;;;7.00;99.90;;;;;;5067266;28;20213;-78
2023/01/07 22:09:12;;;;;;;2.67;2.37;;;7.00;99.90;;;;;;5067443;28;20574;-78
2023/01/07 22:11:40;;;;;;;2.40;2.20;;;7.00;99.90;;;;;;5069204;28;20186;-78
2023/01/07 22:14:10;;;;;;;2.27;2.07;;;7.00;99.90;;;;;;5069638;28;20604;-78
2023/01/07 22:16:36;;;;;;;3.17;2.40;;;7.20;94.60;;;;;;5066065;28;20186;-78
2023/01/07 22:19:02;;;;;;;4.00;3.60;;;7.30;99.90;;;;;;5065501;28;20190;-79
2023/01/07 22:21:28;;;;;;;3.57;3.27;;;7.20;99.90;;;;;;5067561;28;20197;-78
2023/01/07 22:23:54;;;;;;;4.60;4.20;;;7.20;99.90;;;;;;5067435;28;20213;-78
2023/01/07 22:26:20;;;;;;;3.10;2.80;;;7.20;99.90;;;;;;5069266;28;20290;-79
2023/01/07 22:28:52;;;;;;;6.10;3.37;;;7.30;87.10;;;;;;5066792;28;20254;-78
2023/01/07 22:31:24;;;;;;;5.33;4.83;;;7.40;99.90;;;;;;5068670;28;20181;-78
2023/01/07 22:33:50;;;;;;;3.20;2.83;;;7.60;99.90;;;;;;5071738;28;20192;-79
2023/01/07 22:36:22;;;;;;;2.37;1.93;;;7.70;99.90;;;;;;5069461;28;20579;-79
2023/01/07 22:38:49;;;;;;;2.57;2.37;;;8.10;99.90;;;;;;5070410;28;20186;-79
2023/01/07 22:41:15;;;;;;;2.30;2.10;;;7.50;99.90;;;;;;5071532;28;20185;-77
2023/01/07 22:43:41;;;;;;;4.47;2.70;;;7.20;99.90;;;;;;5070100;28;20185;-79
2023/01/07 22:46:17;;;;;;;2.53;2.33;;;7.10;99.90;;;;;;5068898;28;20217;-79
2023/01/07 22:48:42;;;;;;;3.40;2.33;;;7.10;71.20;;;;;;5069534;28;20205;-79
2023/01/07 22:51:13;;;;;;;2.93;2.73;;;7.20;99.90;;;;;;5069825;28;20219;-78
2023/01/07 22:53:39;;;;;;;2.80;2.57;;;7.10;99.90;;;;;;5068641;28;20185;-79
2023/01/07 22:56:06;;;;;;;2.73;2.40;;;7.00;99.90;;;;;;5065667;28;20631;-77
2023/01/07 22:58:31;;;;;;;2.40;2.07;;;7.00;99.90;;;;;;5065907;28;20386;-78
2023/01/07 23:00:57;;;;;;;3.03;2.83;;;7.00;99.90;;;;;;5068630;28;20280;-77
2023/01/07 23:03:22;;;;;;;2.50;2.30;;;7.10;57.80;;;;;;5068107;28;20220;-78
2023/01/07 23:05:49;;;;;;;2.43;2.23;;;7.10;59.80;;;;;;5069409;28;20367;-79
2023/01/07 23:08:15;;;;;;;2.40;2.20;;;7.00;65.70;;;;;;5071668;28;20205;-79
2023/01/07 23:10:41;;;;;;;2.67;2.30;;;7.00;63.50;;;;;;5072367;28;20196;-78
2023/01/07 23:13:07;;;;;;;2.77;2.57;;;7.10;56.60;;;;;;5076210;28;20189;-77
2023/01/07 23:15:33;;;;;;;2.43;2.23;;;7.10;56.90;;;;;;5075782;28;20915;-78
2023/01/07 23:17:59;;;;;;;2.60;2.30;;;7.20;50.90;;;;;;5073054;28;20197;-78
2023/01/07 23:20:24;;;;;;;2.73;2.37;;;7.30;47.00;;;;;;5075763;28;20181;-78
2023/01/07 23:22:50;;;;;;;2.33;2.13;;;7.40;44.20;;;;;;5076462;28;20724;-78
2023/01/07 23:25:16;;;;;;;2.27;2.07;;;7.30;36.80;;;;;;5076666;28;20231;-77
2023/01/07 23:27:41;;;;;;;2.73;2.33;;;7.40;33.90;;;;;;5073853;28;20570;-78
2023/01/07 23:30:08;;;;;;;2.53;2.33;;;7.40;52.80;;;;;;5076215;28;20783;-77
2023/01/07 23:32:33;;;;;;;2.30;2.10;;;7.40;99.90;;;;;;5076135;28;20197;-77
2023/01/07 23:34:59;;;;;;;3.30;2.37;;;7.40;99.90;;;;;;5074965;28;20190;-77
2023/01/07 23:37:25;;;;;;;2.47;2.20;;;7.50;99.90;;;;;;5075521;28;20211;-79
2023/01/07 23:39:50;;;;;;;2.70;2.50;;;7.50;99.90;;;;;;5075021;28;20208;-77
2023/01/07 23:42:16;;;;;;;3.80;2.40;;;7.50;99.90;;;;;;5076698;28;20181;-78
2023/01/07 23:44:41;;;;;;;2.20;2.00;;;7.40;99.90;;;;;;5076073;28;20216;-77
2023/01/07 23:47:07;;;;;;;2.33;2.13;;;7.40;99.90;;;;;;5076686;28;20237;-77
2023/01/07 23:49:33;;;;;;;2.73;2.50;;;7.30;99.90;;;;;;5074131;28;20178;-78
2023/01/07 23:51:58;;;;;;;3.90;2.70;;;7.30;99.90;;;;;;5075974;28;20201;-79
2023/01/07 23:54:24;;;;;;;5.47;2.60;;;7.50;99.90;;;;;;5071031;28;20201;-77
2023/01/07 23:56:50;;;;;;;3.27;2.23;;;7.70;99.90;;;;;;5067536;28;20276;-77
2023/01/07 23:59:16;;;;;;;2.53;2.30;;;7.50;99.90;;;;;;5068018;28;20181;-78
